createdAt,value
2023-03-05T00:00:02.573Z,105.01
2023-03-05T00:01:02.571Z,104.43
2023-03-05T00:02:02.576Z,104.62
2023-03-05T00:03:02.541Z,104.56
2023-03-05T00:04:02.541Z,103.91
2023-03-05T00:05:02.489Z,103.91
2023-03-05T00:06:02.503Z,104.49
2023-03-05T00:07:02.478Z,103.91
2023-03-05T00:08:02.484Z,104.23
2023-03-05T00:09:02.454Z,104.88
2023-03-05T00:10:02.543Z,104.95
2023-03-05T00:11:02.428Z,106.07
2023-03-05T00:12:02.416Z,106.14
2023-03-05T00:13:02.405Z,106.68
2023-03-05T00:14:02.434Z,106.54
2023-03-05T00:15:02.367Z,106.34
2023-03-05T00:16:02.409Z,106.41
2023-03-05T00:17:02.353Z,107.63
2023-03-05T00:18:02.321Z,108.26
2023-03-05T00:19:02.338Z,109.03
2023-03-05T00:20:02.601Z,109.67
2023-03-05T00:21:02.339Z,113.21
2023-03-05T00:22:02.316Z,114.92
2023-03-05T00:23:02.261Z,117.32
2023-03-05T00:24:02.333Z,118.40
2023-03-05T00:25:02.244Z,118.56
2023-03-05T00:26:02.242Z,117.16
2023-03-05T00:27:02.230Z,115.07
2023-03-05T00:28:02.252Z,111.71
2023-03-05T00:29:02.223Z,109.31
2023-03-05T00:30:02.174Z,107.15
2023-03-05T00:31:02.218Z,106.07
2023-03-05T00:32:02.297Z,103.91
2023-03-05T00:33:02.178Z,102.64
2023-03-05T00:34:02.178Z,102.95
2023-03-05T00:35:02.118Z,102.14
2023-03-05T00:36:02.146Z,101.77
2023-03-05T00:37:02.103Z,101.46
2023-03-05T00:38:02.087Z,101.52
2023-03-05T00:39:02.099Z,101.89
2023-03-05T00:40:02.157Z,101.65
2023-03-05T00:41:02.091Z,100.92
2023-03-05T00:42:02.027Z,100.13
2023-03-05T00:43:02.017Z,99.84
2023-03-05T00:44:02.012Z,99.48
2023-03-05T00:45:02.027Z,98.84
2023-03-05T00:46:02.010Z,98.09
2023-03-05T00:47:01.962Z,97.46
2023-03-05T00:48:02.004Z,96.68
2023-03-05T00:49:01.944Z,97.58
2023-03-05T00:50:01.955Z,97.63
2023-03-05T00:51:01.924Z,98.55
2023-03-05T00:52:01.955Z,98.20
2023-03-05T00:53:01.891Z,97.86
2023-03-05T00:54:01.904Z,98.32
2023-03-05T00:55:01.866Z,100.25
2023-03-05T00:56:01.861Z,102.02
2023-03-05T00:57:01.875Z,102.51
2023-03-05T00:58:01.893Z,103.14
2023-03-05T00:59:01.843Z,102.39
2023-03-05T01:00:01.848Z,102.58
2023-03-05T01:01:01.810Z,103.53
2023-03-05T01:02:01.965Z,104.10
2023-03-05T01:03:01.786Z,103.40
2023-03-05T01:04:01.785Z,102.95
2023-03-05T01:05:01.777Z,101.77
2023-03-05T01:06:01.715Z,101.40
2023-03-05T01:07:01.702Z,100.25
2023-03-05T01:08:01.729Z,99.78
2023-03-05T01:09:01.707Z,98.43
2023-03-05T01:10:01.807Z,97.63
2023-03-05T01:11:01.650Z,96.18
2023-03-05T01:12:01.639Z,94.08
2023-03-05T01:13:01.639Z,94.96
2023-03-05T01:14:01.652Z,93.07
2023-03-05T01:15:01.596Z,92.66
2023-03-05T01:16:01.707Z,91.65
2023-03-05T01:17:01.632Z,91.85
2023-03-05T01:18:01.567Z,92.05
2023-03-05T01:19:01.599Z,91.05
2023-03-05T01:20:01.575Z,91.35
2023-03-05T01:21:01.552Z,91.15
2023-03-05T01:22:01.536Z,90.95
2023-03-05T01:23:01.526Z,90.27
2023-03-05T01:24:01.512Z,89.40
2023-03-05T01:25:01.484Z,88.74
2023-03-05T01:26:01.459Z,88.09
2023-03-05T01:27:01.446Z,87.82
2023-03-05T01:28:01.445Z,88.00
2023-03-05T01:29:01.416Z,86.91
2023-03-05T01:30:01.433Z,87.54
2023-03-05T01:31:01.389Z,88.09
2023-03-05T01:32:01.430Z,89.12
2023-03-05T01:33:01.372Z,89.31
2023-03-05T01:34:01.397Z,89.31
2023-03-05T01:35:01.360Z,89.69
2023-03-05T01:36:01.339Z,91.05
2023-03-05T01:37:01.323Z,91.25
2023-03-05T01:38:01.330Z,92.76
2023-03-05T01:39:01.318Z,93.48
2023-03-05T01:40:01.318Z,94.00
2023-03-05T01:41:01.281Z,95.50
2023-03-05T01:42:01.316Z,95.39
2023-03-05T01:43:01.258Z,93.51
2023-03-05T01:44:01.228Z,95.18
2023-03-05T01:45:01.276Z,94.96
2023-03-05T01:46:01.334Z,94.75
2023-03-05T01:47:01.193Z,94.32
2023-03-05T01:48:01.186Z,94.96
2023-03-05T01:49:01.168Z,93.79
2023-03-05T01:50:01.178Z,94.32
2023-03-05T01:51:01.163Z,94.75
2023-03-05T01:52:01.168Z,94.85
2023-03-05T01:53:01.204Z,94.43
2023-03-05T01:54:01.138Z,94.32
2023-03-05T01:55:01.126Z,94.00
2023-03-05T01:56:01.115Z,94.11
2023-03-05T01:57:01.074Z,92.96
2023-03-05T01:58:01.088Z,92.96
2023-03-05T01:59:01.047Z,93.38
2023-03-05T02:00:01.042Z,94.32
2023-03-05T02:01:01.077Z,94.64
2023-03-05T02:02:00.999Z,95.07
2023-03-05T02:03:00.989Z,94.45
2023-03-05T02:04:01.081Z,93.61
2023-03-05T02:05:00.987Z,94.75
2023-03-05T02:06:00.969Z,95.28
2023-03-05T02:07:00.942Z,95.39
2023-03-05T02:08:00.920Z,94.53
2023-03-05T02:09:00.953Z,94.00
2023-03-05T02:10:00.942Z,93.07
2023-03-05T02:11:00.936Z,93.07
2023-03-05T02:12:00.882Z,92.96
2023-03-05T02:13:00.865Z,93.90
2023-03-05T02:14:00.883Z,94.64
2023-03-05T02:15:00.869Z,94.77
2023-03-05T02:16:00.927Z,96.18
2023-03-05T02:17:00.850Z,97.58
2023-03-05T02:18:00.810Z,98.38
2023-03-05T02:19:00.835Z,98.43
2023-03-05T02:20:00.802Z,99.72
2023-03-05T02:21:00.792Z,102.02
2023-03-05T02:22:00.836Z,103.78
2023-03-05T02:23:00.742Z,104.88
2023-03-05T02:24:00.748Z,107.22
2023-03-05T02:25:00.738Z,107.08
2023-03-05T02:26:00.734Z,107.08
2023-03-05T02:27:00.725Z,108.19
2023-03-05T02:28:00.746Z,107.08
2023-03-05T02:29:00.688Z,107.22
2023-03-05T02:30:00.677Z,108.05
2023-03-05T02:31:00.669Z,107.63
2023-03-05T02:32:00.788Z,107.77
2023-03-05T02:33:00.681Z,107.22
2023-03-05T02:34:00.649Z,105.81
2023-03-05T02:35:00.633Z,105.74
2023-03-05T02:36:00.646Z,106.27
2023-03-05T02:37:00.567Z,105.94
2023-03-05T02:38:00.572Z,105.87
2023-03-05T02:39:00.583Z,105.41
2023-03-05T02:40:00.568Z,105.61
2023-03-05T02:41:00.533Z,104.75
2023-03-05T02:42:00.512Z,103.14
2023-03-05T02:43:00.519Z,104.49
2023-03-05T02:44:00.499Z,103.84
2023-03-05T02:45:00.501Z,103.21
2023-03-05T02:46:00.538Z,102.14
2023-03-05T02:47:00.474Z,100.31
2023-03-05T02:48:00.467Z,100.49
2023-03-05T02:49:00.483Z,100.79
2023-03-05T02:50:00.431Z,102.02
2023-03-05T02:51:00.417Z,101.77
2023-03-05T02:52:00.467Z,100.79
2023-03-05T02:53:00.406Z,101.22
2023-03-05T02:54:00.376Z,100.92
2023-03-05T02:55:00.348Z,100.19
2023-03-05T02:56:00.350Z,100.55
2023-03-05T02:57:00.338Z,99.13
2023-03-05T02:58:00.350Z,98.61
2023-03-05T02:59:00.339Z,98.55
2023-03-05T03:00:00.312Z,98.20
2023-03-05T03:01:00.315Z,98.26
2023-03-05T03:02:00.261Z,98.20
2023-03-05T03:03:00.323Z,97.97
2023-03-05T03:04:00.295Z,97.69
2023-03-05T03:05:00.254Z,97.86
2023-03-05T03:06:00.236Z,97.24
2023-03-05T03:07:00.213Z,97.52
2023-03-05T03:08:00.194Z,97.35
2023-03-05T03:09:00.178Z,97.41
2023-03-05T03:10:00.234Z,97.18
2023-03-05T03:11:00.169Z,98.09
2023-03-05T03:12:00.154Z,99.36
2023-03-05T03:13:00.150Z,99.60
2023-03-05T03:14:00.122Z,100.92
2023-03-05T03:15:00.156Z,100.73
2023-03-05T03:16:00.135Z,101.16
2023-03-05T03:17:00.117Z,100.79
2023-03-05T03:18:00.088Z,99.01
2023-03-05T03:19:00.044Z,98.96
2023-03-05T03:20:00.047Z,98.78
2023-03-05T03:21:00.050Z,98.55
2023-03-05T03:22:00.053Z,98.84
2023-03-05T03:22:59.995Z,97.75
2023-03-05T03:24:00.003Z,97.12
2023-03-05T03:24:59.983Z,97.01
2023-03-05T03:25:59.996Z,97.52
2023-03-05T03:26:59.949Z,97.58
2023-03-05T03:27:59.991Z,98.32
2023-03-05T03:28:59.937Z,98.32
2023-03-05T03:29:59.930Z,97.80
2023-03-05T03:30:59.954Z,96.79
2023-03-05T03:31:59.926Z,95.85
2023-03-05T03:32:59.881Z,94.45
2023-03-05T03:33:59.891Z,95.28
2023-03-05T03:34:59.888Z,93.56
2023-03-05T03:35:59.912Z,95.50
2023-03-05T03:36:59.865Z,94.45
2023-03-05T03:37:59.815Z,94.24
2023-03-05T03:38:59.834Z,93.82
2023-03-05T03:39:59.867Z,94.66
2023-03-05T03:40:59.772Z,95.74
2023-03-05T03:41:59.786Z,96.96
2023-03-05T03:42:59.746Z,98.09
2023-03-05T03:43:59.753Z,99.42
2023-03-05T03:44:59.746Z,100.19
2023-03-05T03:45:59.802Z,100.55
2023-03-05T03:46:59.714Z,100.85
2023-03-05T03:47:59.738Z,102.45
2023-03-05T03:48:59.683Z,103.21
2023-03-05T03:49:59.709Z,104.10
2023-03-05T03:50:59.657Z,104.68
2023-03-05T03:51:59.684Z,104.95
2023-03-05T03:52:59.642Z,104.56
2023-03-05T03:53:59.625Z,104.62
2023-03-05T03:54:59.650Z,105.87
2023-03-05T03:55:59.594Z,106.68
2023-03-05T03:56:59.610Z,107.77
2023-03-05T03:57:59.657Z,108.05
2023-03-05T03:58:59.560Z,108.33
2023-03-05T03:59:59.565Z,108.82
2023-03-05T04:00:59.532Z,109.31
2023-03-05T04:01:59.544Z,109.17
2023-03-05T04:02:59.569Z,108.19
2023-03-05T04:03:59.541Z,107.43
2023-03-05T04:04:59.525Z,105.87
2023-03-05T04:05:59.474Z,104.62
2023-03-05T04:06:59.482Z,103.59
2023-03-05T04:07:59.476Z,101.65
2023-03-05T04:08:59.436Z,101.46
2023-03-05T04:09:59.477Z,102.20
2023-03-05T04:10:59.441Z,102.26
2023-03-05T04:11:59.423Z,102.64
2023-03-05T04:12:59.379Z,102.89
2023-03-05T04:13:59.376Z,103.33
2023-03-05T04:14:59.378Z,104.23
2023-03-05T04:15:59.444Z,104.95
2023-03-05T04:16:59.331Z,105.34
2023-03-05T04:17:59.322Z,104.43
2023-03-05T04:18:59.321Z,103.08
2023-03-05T04:19:59.310Z,101.71
2023-03-05T04:20:59.293Z,100.31
2023-03-05T04:21:59.323Z,99.31
2023-03-05T04:22:59.297Z,99.72
2023-03-05T04:23:59.244Z,98.66
2023-03-05T04:24:59.259Z,97.80
2023-03-05T04:25:59.253Z,96.85
2023-03-05T04:26:59.247Z,96.18
2023-03-05T04:27:59.222Z,95.58
2023-03-05T04:28:59.176Z,95.42
2023-03-05T04:29:59.165Z,96.68
2023-03-05T04:30:59.313Z,96.51
2023-03-05T04:31:59.171Z,95.53
2023-03-05T04:32:59.131Z,95.31
2023-03-05T04:33:59.159Z,95.09
2023-03-05T04:34:59.133Z,94.08
2023-03-05T04:35:59.173Z,93.87
2023-03-05T04:36:59.110Z,95.50
2023-03-05T04:37:59.081Z,93.79
2023-03-05T04:38:59.048Z,93.48
2023-03-05T04:39:59.064Z,93.38
2023-03-05T04:40:59.063Z,92.25
2023-03-05T04:41:59.007Z,91.75
2023-03-05T04:42:59.005Z,90.46
2023-03-05T04:43:58.991Z,91.05
2023-03-05T04:44:58.989Z,90.76
2023-03-05T04:45:59.027Z,90.07
2023-03-05T04:46:58.963Z,89.50
2023-03-05T04:47:59.021Z,88.46
2023-03-05T04:48:58.916Z,89.31
2023-03-05T04:49:58.935Z,89.88
2023-03-05T04:50:58.912Z,89.69
2023-03-05T04:51:58.911Z,89.31
2023-03-05T04:52:58.896Z,89.31
2023-03-05T04:53:58.874Z,89.69
2023-03-05T04:54:58.850Z,90.07
2023-03-05T04:55:58.846Z,90.66
2023-03-05T04:56:58.825Z,90.56
2023-03-05T04:57:58.861Z,91.25
2023-03-05T04:58:58.793Z,91.65
2023-03-05T04:59:58.786Z,92.45
2023-03-05T05:00:58.787Z,91.65
2023-03-05T05:01:58.838Z,91.25
2023-03-05T05:02:58.807Z,91.85
2023-03-05T05:03:58.788Z,92.45
2023-03-05T05:04:58.727Z,92.66
2023-03-05T05:05:58.724Z,92.76
2023-03-05T05:06:58.708Z,92.76
2023-03-05T05:07:58.738Z,93.07
2023-03-05T05:08:58.709Z,93.58
2023-03-05T05:09:58.731Z,94.11
2023-03-05T05:10:58.661Z,93.48
2023-03-05T05:11:58.634Z,92.96
2023-03-05T05:12:58.689Z,91.45
2023-03-05T05:13:58.659Z,91.15
2023-03-05T05:14:58.608Z,91.05
2023-03-05T05:15:58.660Z,90.27
2023-03-05T05:16:58.571Z,89.69
2023-03-05T05:17:59.533Z,91.75
2023-03-05T05:18:58.612Z,91.65
2023-03-05T05:19:58.549Z,91.75
2023-03-05T05:20:58.528Z,92.05
2023-03-05T05:21:58.566Z,92.45
2023-03-05T05:22:58.503Z,92.25
2023-03-05T05:23:58.519Z,92.86
2023-03-05T05:24:58.542Z,92.76
2023-03-05T05:25:58.487Z,92.25
2023-03-05T05:26:58.463Z,91.35
2023-03-05T05:27:58.472Z,90.66
2023-03-05T05:28:58.432Z,89.60
2023-03-05T05:29:58.443Z,88.74
2023-03-05T05:30:58.434Z,88.00
2023-03-05T05:31:58.441Z,88.09
2023-03-05T05:32:58.413Z,88.65
2023-03-05T05:33:58.406Z,88.37
2023-03-05T05:34:58.401Z,88.93
2023-03-05T05:35:58.404Z,89.40
2023-03-05T05:36:58.337Z,89.31
2023-03-05T05:37:58.329Z,88.74
2023-03-05T05:38:58.327Z,88.19
2023-03-05T05:39:58.317Z,88.56
2023-03-05T05:40:58.312Z,88.74
2023-03-05T05:41:58.274Z,88.09
2023-03-05T05:42:58.290Z,88.19
2023-03-05T05:43:58.254Z,88.93
2023-03-05T05:44:58.239Z,89.03
2023-03-05T05:45:58.387Z,89.21
2023-03-05T05:46:58.217Z,89.50
2023-03-05T05:47:58.221Z,90.17
2023-03-05T05:48:58.199Z,92.56
2023-03-05T05:49:58.174Z,93.90
2023-03-05T05:50:58.168Z,94.64
2023-03-05T05:51:58.194Z,95.39
2023-03-05T05:52:58.164Z,93.82
2023-03-05T05:53:58.137Z,94.08
2023-03-05T05:54:58.117Z,94.99
2023-03-05T05:55:58.170Z,94.99
2023-03-05T05:56:58.092Z,95.53
2023-03-05T05:57:58.134Z,95.91
2023-03-05T05:58:58.080Z,96.46
2023-03-05T05:59:58.049Z,96.18
2023-03-05T06:00:58.036Z,95.96
2023-03-05T06:01:58.070Z,97.12
2023-03-05T06:02:58.156Z,96.57
2023-03-05T06:03:58.062Z,97.07
2023-03-05T06:04:58.405Z,96.85
2023-03-05T06:05:57.996Z,96.18
2023-03-05T06:06:57.996Z,94.99
2023-03-05T06:07:57.991Z,94.75
2023-03-05T06:08:57.981Z,92.66
2023-03-05T06:09:57.973Z,90.66
2023-03-05T06:10:57.925Z,88.93
2023-03-05T06:11:57.914Z,88.37
2023-03-05T06:12:57.907Z,87.54
2023-03-05T06:13:57.888Z,87.27
2023-03-05T06:14:57.875Z,86.46
2023-03-05T06:15:57.884Z,86.20
2023-03-05T06:16:57.849Z,86.02
2023-03-05T06:17:57.852Z,85.24
2023-03-05T06:18:57.862Z,85.32
2023-03-05T06:19:57.813Z,85.06
2023-03-05T06:20:57.801Z,84.72
2023-03-05T06:21:57.859Z,84.13
2023-03-05T06:22:57.794Z,84.21
2023-03-05T06:23:57.780Z,83.62
2023-03-05T06:24:57.781Z,83.54
2023-03-05T06:25:57.726Z,83.13
2023-03-05T06:26:57.732Z,82.80
2023-03-05T06:27:57.732Z,82.88
2023-03-05T06:28:57.715Z,83.21
2023-03-05T06:29:57.725Z,83.71
2023-03-05T06:30:57.722Z,84.13
2023-03-05T06:31:57.725Z,84.21
2023-03-05T06:32:57.736Z,85.15
2023-03-05T06:33:57.667Z,84.46
2023-03-05T06:34:57.625Z,85.24
2023-03-05T06:35:57.654Z,85.67
2023-03-05T06:36:57.603Z,86.55
2023-03-05T06:37:57.582Z,87.45
2023-03-05T06:38:57.589Z,87.82
2023-03-05T06:39:57.579Z,87.91
2023-03-05T06:40:57.548Z,89.03
2023-03-05T06:41:57.546Z,90.66
2023-03-05T06:42:57.516Z,91.85
2023-03-05T06:43:57.524Z,93.48
2023-03-05T06:44:57.495Z,93.90
2023-03-05T06:45:57.565Z,93.79
2023-03-05T06:46:57.464Z,94.32
2023-03-05T06:47:57.459Z,93.71
2023-03-05T06:48:57.489Z,94.13
2023-03-05T06:49:57.438Z,94.50
2023-03-05T06:50:57.444Z,93.71
2023-03-05T06:51:57.450Z,93.71
2023-03-05T06:52:57.402Z,94.19
2023-03-05T06:53:57.396Z,95.18
2023-03-05T06:54:57.373Z,94.75
2023-03-05T06:55:57.364Z,93.69
2023-03-05T06:56:57.368Z,94.96
2023-03-05T06:57:57.370Z,93.66
2023-03-05T06:58:57.358Z,95.50
2023-03-05T06:59:57.306Z,94.40
2023-03-05T07:00:57.309Z,97.41
2023-03-05T07:01:57.338Z,97.80
2023-03-05T07:02:57.284Z,98.55
2023-03-05T07:03:57.289Z,99.01
2023-03-05T07:04:57.268Z,100.55
2023-03-05T07:05:57.230Z,102.89
2023-03-05T07:06:57.210Z,104.04
2023-03-05T07:07:57.268Z,106.95
2023-03-05T07:08:57.199Z,111.05
2023-03-05T07:09:57.201Z,114.68
2023-03-05T07:10:57.160Z,118.07
2023-03-05T07:11:57.146Z,117.08
2023-03-05T07:12:57.141Z,117.40
2023-03-05T07:13:57.144Z,121.13
2023-03-05T07:14:57.118Z,124.17
2023-03-05T07:15:57.151Z,127.85
2023-03-05T07:16:57.089Z,129.73
2023-03-05T07:17:57.114Z,135.15
2023-03-05T07:18:57.093Z,139.87
2023-03-05T07:19:57.046Z,148.26
2023-03-05T07:20:57.057Z,159.97
2023-03-05T07:21:57.086Z,167.12
2023-03-05T07:22:57.045Z,176.23
2023-03-05T07:23:57.050Z,182.55
2023-03-05T07:24:57.110Z,185.16
2023-03-05T07:25:57.001Z,185.14
2023-03-05T07:26:56.979Z,186.18
2023-03-05T07:27:57.014Z,191.80
2023-03-05T07:28:56.931Z,200.77
2023-03-05T07:29:56.929Z,214.86
2023-03-05T07:30:57.010Z,214.86
2023-03-05T07:31:56.901Z,207.05
2023-03-05T07:32:56.874Z,199.80
2023-03-05T07:33:56.918Z,192.80
2023-03-05T07:34:56.880Z,187.98
2023-03-05T07:35:56.908Z,187.02
2023-03-05T07:36:56.854Z,192.13
2023-03-05T07:37:56.822Z,199.68
2023-03-05T07:38:56.859Z,201.62
2023-03-05T07:39:57.138Z,195.77
2023-03-05T07:40:56.783Z,190.58
2023-03-05T07:41:56.776Z,194.74
2023-03-05T07:42:56.784Z,196.47
2023-03-05T07:43:56.768Z,200.40
2023-03-05T07:44:56.727Z,205.51
2023-03-05T07:45:56.840Z,215.70
2023-03-05T07:46:56.709Z,221.63
2023-03-05T07:47:56.703Z,231.57
2023-03-05T07:48:56.682Z,237.05
2023-03-05T07:49:56.658Z,242.97
2023-03-05T07:50:56.666Z,257.55
2023-03-05T07:51:56.664Z,254.18
2023-03-05T07:52:56.630Z,252.24
2023-03-05T07:53:56.640Z,261.00
2023-03-05T07:54:56.609Z,287.82
2023-03-05T07:55:56.604Z,333.39
2023-03-05T07:56:56.598Z,359.89
2023-03-05T07:57:56.606Z,369.13
2023-03-05T07:58:56.552Z,380.21
2023-03-05T07:59:56.537Z,404.47
2023-03-05T08:00:56.538Z,430.38
2023-03-05T08:01:56.523Z,434.56
2023-03-05T08:02:56.517Z,412.42
2023-03-05T08:03:56.657Z,404.47
2023-03-05T08:04:56.494Z,407.66
2023-03-05T08:05:56.469Z,409.40
2023-03-05T08:06:56.483Z,414.20
2023-03-05T08:07:56.431Z,433.16
2023-03-05T08:08:56.427Z,449.08
2023-03-05T08:09:56.449Z,469.15
2023-03-05T08:10:56.387Z,495.45
2023-03-05T08:11:56.399Z,500.99
2023-03-05T08:12:56.365Z,491.82
2023-03-05T08:13:56.359Z,489.67
2023-03-05T08:14:56.350Z,484.03
2023-03-05T08:15:56.405Z,474.79
2023-03-05T08:16:56.318Z,478.17
2023-03-05T08:17:56.327Z,492.54
2023-03-05T08:18:56.293Z,512.06
2023-03-05T08:19:56.269Z,514.02
2023-03-05T08:20:56.269Z,518.39
2023-03-05T08:21:56.511Z,520.80
2023-03-05T08:22:56.244Z,520.80
2023-03-05T08:23:56.229Z,524.05
2023-03-05T08:24:56.228Z,540.49
2023-03-05T08:25:56.209Z,536.17
2023-03-05T08:26:56.210Z,542.23
2023-03-05T08:27:56.200Z,552.04
2023-03-05T08:28:56.176Z,576.18
2023-03-05T08:29:56.145Z,600.92
2023-03-05T08:30:56.183Z,635.60
2023-03-05T08:31:56.127Z,691.89
2023-03-05T08:32:56.116Z,698.37
2023-03-05T08:33:56.188Z,713.19
2023-03-05T08:34:56.083Z,717.77
2023-03-05T08:35:56.103Z,691.18
2023-03-05T08:36:56.052Z,677.93
2023-03-05T08:37:56.121Z,648.48
2023-03-05T08:38:56.048Z,682.75
2023-03-05T08:39:56.035Z,705.70
2023-03-05T08:40:56.020Z,702.75
2023-03-05T08:41:55.984Z,740.71
2023-03-05T08:42:55.992Z,767.69
2023-03-05T08:43:55.966Z,776.56
2023-03-05T08:44:55.956Z,791.64
2023-03-05T08:45:55.982Z,810.73
2023-03-05T08:46:56.025Z,828.20
2023-03-05T08:47:55.961Z,832.30
2023-03-05T08:48:55.916Z,830.25
2023-03-05T08:49:55.905Z,816.14
2023-03-05T08:50:55.869Z,807.32
2023-03-05T08:51:55.915Z,793.51
2023-03-05T08:52:55.873Z,777.01
2023-03-05T08:53:55.827Z,777.01
2023-03-05T08:54:55.809Z,794.45
2023-03-05T08:55:55.814Z,810.24
2023-03-05T08:56:55.803Z,817.13
2023-03-05T08:57:55.932Z,816.64
2023-03-05T08:58:55.776Z,794.92
2023-03-05T08:59:55.773Z,775.22
2023-03-05T09:00:55.749Z,784.26
2023-03-05T09:01:55.870Z,819.62
2023-03-05T09:02:55.746Z,836.96
2023-03-05T09:03:55.747Z,840.62
2023-03-05T09:04:55.700Z,833.33
2023-03-05T09:05:55.684Z,842.73
2023-03-05T09:06:55.679Z,817.13
2023-03-05T09:07:55.721Z,814.16
2023-03-05T09:08:55.683Z,794.92
2023-03-05T09:09:55.661Z,780.16
2023-03-05T09:10:55.609Z,776.11
2023-03-05T09:11:55.598Z,775.66
2023-03-05T09:12:55.584Z,785.63
2023-03-05T09:13:55.578Z,793.04
2023-03-05T09:14:55.553Z,795.86
2023-03-05T09:15:55.646Z,785.63
2023-03-05T09:16:55.531Z,799.64
2023-03-05T09:17:55.520Z,812.20
2023-03-05T09:18:55.538Z,825.15
2023-03-05T09:19:55.499Z,844.85
2023-03-05T09:20:55.472Z,859.97
2023-03-05T09:21:57.097Z,876.22
2023-03-05T09:22:55.463Z,889.55
2023-03-05T09:23:55.499Z,901.47
2023-03-05T09:24:55.586Z,915.59
2023-03-05T09:25:55.439Z,900.87
2023-03-05T09:26:55.407Z,940.56
2023-03-05T09:27:55.423Z,964.85
2023-03-05T09:28:55.370Z,963.47
2023-03-05T09:29:55.384Z,976.05
2023-03-05T09:30:55.340Z,1002.23
2023-03-05T09:31:55.437Z,1034.61
2023-03-05T09:32:55.319Z,1037.81
2023-03-05T09:33:55.353Z,1051.60
2023-03-05T09:34:55.310Z,1074.28
2023-03-05T09:35:55.415Z,1088.19
2023-03-05T09:36:55.281Z,1075.14
2023-03-05T09:37:55.297Z,1092.61
2023-03-05T09:38:55.251Z,1101.56
2023-03-05T09:39:55.285Z,1109.74
2023-03-05T09:40:55.214Z,1093.49
2023-03-05T09:41:55.222Z,1125.52
2023-03-05T09:42:55.192Z,1171.60
2023-03-05T09:43:55.197Z,1178.79
2023-03-05T09:44:55.243Z,1193.43
2023-03-05T09:45:55.237Z,1207.36
2023-03-05T09:46:55.149Z,1195.56
2023-03-05T09:47:55.167Z,1199.82
2023-03-05T09:48:55.150Z,1180.86
2023-03-05T09:49:55.115Z,1191.32
2023-03-05T09:50:55.115Z,1208.44
2023-03-05T09:51:55.133Z,1219.40
2023-03-05T09:52:55.065Z,1207.36
2023-03-05T09:53:55.062Z,1282.17
2023-03-05T09:54:55.041Z,1288.31
2023-03-05T09:55:55.069Z,1316.05
2023-03-05T09:56:55.020Z,1252.33
2023-03-05T09:57:55.040Z,1252.33
2023-03-05T09:58:56.230Z,1259.36
2023-03-05T09:59:54.995Z,1268.87
2023-03-05T10:00:54.982Z,1268.87
2023-03-05T10:01:54.961Z,1261.73
2023-03-05T10:02:55.005Z,1235.08
2023-03-05T10:03:54.964Z,1246.52
2023-03-05T10:04:54.960Z,1271.27
2023-03-05T10:05:54.903Z,1292.03
2023-03-05T10:06:54.897Z,1289.55
2023-03-05T10:07:54.910Z,1270.07
2023-03-05T10:08:54.864Z,1243.07
2023-03-05T10:09:54.907Z,1246.52
2023-03-05T10:10:54.838Z,1268.87
2023-03-05T10:11:54.825Z,1270.07
2023-03-05T10:12:54.804Z,1273.67
2023-03-05T10:13:54.791Z,1264.10
2023-03-05T10:14:54.790Z,1268.87
2023-03-05T10:15:54.799Z,1266.48
2023-03-05T10:16:54.802Z,1280.95
2023-03-05T10:17:54.749Z,1257.01
2023-03-05T10:18:54.729Z,1347.69
2023-03-05T10:19:54.714Z,1478.02
2023-03-05T10:20:54.705Z,1506.16
2023-03-05T10:21:54.725Z,1570.34
2023-03-05T10:22:54.685Z,1593.60
2023-03-05T10:23:54.675Z,1564.86
2023-03-05T10:24:54.664Z,1574.02
2023-03-05T10:25:54.644Z,1518.92
2023-03-05T10:26:54.661Z,1527.54
2023-03-05T10:27:54.641Z,1489.48
2023-03-05T10:28:54.611Z,1489.48
2023-03-05T10:29:54.602Z,1478.02
2023-03-05T10:30:54.623Z,1474.78
2023-03-05T10:31:54.599Z,1429.33
2023-03-05T10:32:54.555Z,1390.90
2023-03-05T10:33:54.589Z,1405.43
2023-03-05T10:34:54.523Z,1430.85
2023-03-05T10:35:54.530Z,1409.85
2023-03-05T10:36:56.190Z,1411.33
2023-03-05T10:37:54.504Z,1417.28
2023-03-05T10:38:54.470Z,1476.40
2023-03-05T10:39:54.487Z,1438.50
2023-03-05T10:40:54.464Z,1458.79
2023-03-05T10:41:54.442Z,1433.90
2023-03-05T10:42:54.429Z,1446.24
2023-03-05T10:43:54.412Z,1452.48
2023-03-05T10:44:54.398Z,1432.37
2023-03-05T10:45:54.479Z,1389.46
2023-03-05T10:46:55.975Z,1334.32
2023-03-05T10:47:54.386Z,1334.32
2023-03-05T10:48:54.354Z,1334.32
2023-03-05T10:49:54.342Z,1314.76
2023-03-05T10:50:54.325Z,1321.22
2023-03-05T10:51:54.371Z,1307.09
2023-03-05T10:52:54.294Z,1276.09
2023-03-05T10:53:54.309Z,1273.67
2023-03-05T10:54:54.348Z,1264.10
2023-03-05T10:55:54.278Z,1216.09
2023-03-05T10:56:54.242Z,1187.11
2023-03-05T10:57:54.303Z,1155.50
2023-03-05T10:58:54.228Z,1131.20
2023-03-05T10:59:54.266Z,1126.46
2023-03-05T11:00:55.174Z,1126.46
2023-03-05T11:01:54.177Z,1115.26
2023-03-05T11:02:54.260Z,1117.11
2023-03-05T11:03:54.183Z,1135.02
2023-03-05T11:04:54.146Z,1100.65
2023-03-05T11:05:54.183Z,1088.19
2023-03-05T11:06:54.171Z,1076.00
2023-03-05T11:07:54.122Z,1057.39
2023-03-05T11:08:54.104Z,1077.72
2023-03-05T11:09:54.150Z,1107.91
2023-03-05T11:10:54.055Z,1109.74
2023-03-05T11:11:54.054Z,1106.99
2023-03-05T11:12:54.069Z,1095.28
2023-03-05T11:13:54.065Z,1100.65
2023-03-05T11:14:54.004Z,1093.49
2023-03-05T11:15:54.038Z,1071.71
2023-03-05T11:16:53.995Z,1076.00
2023-03-05T11:17:53.994Z,1087.31
2023-03-05T11:18:53.982Z,1126.46
2023-03-05T11:19:53.959Z,1169.56
2023-03-05T11:20:53.930Z,1175.70
2023-03-05T11:21:53.972Z,1203.04
2023-03-05T11:22:53.898Z,1216.09
2023-03-05T11:23:53.885Z,1250.00
2023-03-05T11:24:53.883Z,1235.08
2023-03-05T11:25:53.869Z,1247.68
2023-03-05T11:26:53.876Z,1245.37
2023-03-05T11:27:54.886Z,1213.90
2023-03-05T11:28:53.848Z,1182.94
2023-03-05T11:29:53.817Z,1237.35
2023-03-05T11:30:53.854Z,1216.09
2023-03-05T11:31:53.782Z,1170.58
2023-03-05T11:32:53.804Z,1191.32
2023-03-05T11:33:53.785Z,1207.36
2023-03-05T11:34:53.754Z,1186.07
2023-03-05T11:35:53.761Z,1178.79
2023-03-05T11:36:53.718Z,1220.51
2023-03-05T11:37:53.721Z,1253.49
2023-03-05T11:38:53.735Z,1247.68
2023-03-05T11:39:53.784Z,1211.71
2023-03-05T11:40:53.674Z,1259.36
2023-03-05T11:41:53.689Z,1322.52
2023-03-05T11:42:53.650Z,1388.03
2023-03-05T11:43:53.627Z,1411.33
2023-03-05T11:44:53.622Z,1444.68
2023-03-05T11:45:53.653Z,1408.38
2023-03-05T11:46:53.627Z,1447.79
2023-03-05T11:47:53.596Z,1417.28
2023-03-05T11:48:53.567Z,1429.33
2023-03-05T11:49:53.564Z,1411.33
2023-03-05T11:50:53.580Z,1393.78
2023-03-05T11:51:53.562Z,1412.81
2023-03-05T11:52:53.529Z,1390.90
2023-03-05T11:53:53.500Z,1440.04
2023-03-05T11:54:53.501Z,1492.79
2023-03-05T11:55:53.512Z,1572.18
2023-03-05T11:56:53.476Z,1615.61
2023-03-05T11:57:53.504Z,1605.97
2023-03-05T11:58:53.469Z,1603.10
2023-03-05T11:59:53.457Z,1580.49
2023-03-05T12:00:53.485Z,1566.69
2023-03-05T12:01:53.403Z,1623.42
2023-03-05T12:02:53.509Z,1669.77
2023-03-05T12:03:53.475Z,1646.27
2023-03-05T12:04:53.354Z,1632.28
2023-03-05T12:05:53.354Z,1581.42
2023-03-05T12:06:53.344Z,1572.18
2023-03-05T12:07:53.330Z,1599.29
2023-03-05T12:08:53.321Z,1569.43
2023-03-05T12:09:53.395Z,1559.42
2023-03-05T12:10:53.288Z,1518.92
2023-03-05T12:11:53.272Z,1494.44
2023-03-05T12:12:53.260Z,1481.28
2023-03-05T12:13:53.244Z,1436.96
2023-03-05T12:14:53.266Z,1398.13
2023-03-05T12:15:53.257Z,1484.55
2023-03-05T12:16:53.239Z,1533.64
2023-03-05T12:17:53.205Z,1529.28
2023-03-05T12:18:53.176Z,1499.44
2023-03-05T12:19:53.182Z,1507.85
2023-03-05T12:20:53.328Z,1492.79
2023-03-05T12:21:53.179Z,1491.13
2023-03-05T12:22:53.126Z,1482.91
2023-03-05T12:23:53.144Z,1486.19
2023-03-05T12:24:53.100Z,1476.40
2023-03-05T12:25:53.114Z,1426.30
2023-03-05T12:26:53.086Z,1388.03
2023-03-05T12:27:53.089Z,1347.69
2023-03-05T12:28:53.065Z,1406.90
2023-03-05T12:29:53.096Z,1426.30
2023-03-05T12:30:53.026Z,1409.85